Belton, South Carolina
Current Conditions -  °F | °C
As of 7:56 AM on Wednesday 22 Oct 2014 (Local Time) from KAND Reporting Station
Clear Clear  
Wind Chill:   Ceiling: Unl
Heat Index:   Visibility: 10mi
Dew Point:   Wind: 0mph
Humidity: 97%   Direction: NA
Pressure: 30.07"   Gusts: NA
Location:  34.52°N, 82.49°W
Report Text: KAND 221156Z AUTO 00000KT 10SM CLR 04/04 A3007 RMK AO2 SLP179 T00440039 10111 20039 51020
Loading
Personal Weather Stations






























Interactive Weather Map
Tropical Storm Tracking
New forecast layout! Learn more

10-Day Weather Forecast

Advertisements
Track Severe Weather on mobile